Terminal Aerodrome Forecast
Issued by NWS Paducah, KY

Home | Current Version | Previous Version | Text Only | Print | Product List | Glossary On
Versions: 1 2 3 4 5 6 7 8 9 10 11 12 13
000
FTUS43 KPAH 221351 AAA
TAFEVV
TAF AMD
KEVV 221351Z 2214/2312 31008G18KT P6SM BKN050
      TEMPO 2214/2215 SCT050
     FM221500 32013G20KT P6SM SKC
     FM230100 29003KT P6SM SKC=

USA.gov is the U.S. government's official web portal to all federal, state and local government web resources and services.